createdAt,value
2022-11-22T00:00:30.447Z,5.87
2022-11-22T00:04:32.552Z,5.80
2022-11-22T00:09:02.315Z,6.30
2022-11-22T00:13:04.837Z,5.57
2022-11-22T00:17:33.544Z,5.53
2022-11-22T00:21:47.720Z,6.57
2022-11-22T00:25:49.948Z,6.93
2022-11-22T00:30:34.015Z,7.77
2022-11-22T00:35:01.461Z,7.73
2022-11-22T00:40:07.742Z,7.33
2022-11-22T00:44:09.621Z,8.30
2022-11-22T00:48:11.689Z,8.10
2022-11-22T00:52:14.465Z,6.97
2022-11-22T00:56:16.335Z,7.47
2022-11-22T01:00:18.386Z,9.40
2022-11-22T01:04:20.469Z,10.50
2022-11-22T01:08:22.599Z,9.53
2022-11-22T01:12:24.476Z,12.47
2022-11-22T01:16:26.427Z,10.53
2022-11-22T01:20:28.395Z,24.67
2022-11-22T01:24:30.518Z,24.97
2022-11-22T01:29:02.361Z,45.67
2022-11-22T01:33:12.759Z,40.87
2022-11-22T01:38:26.938Z,12.90
2022-11-22T01:42:58.929Z,48.23
2022-11-22T01:47:14.278Z,65.23
2022-11-22T01:51:28.483Z,47.87
2022-11-22T01:55:42.785Z,72.00
2022-11-22T02:00:02.251Z,28.93
2022-11-22T02:04:09.153Z,48.07
2022-11-22T02:08:29.229Z,28.00
2022-11-22T02:12:32.131Z,25.57
2022-11-22T02:16:35.400Z,40.77
2022-11-22T02:20:39.834Z,45.93
2022-11-22T02:25:31.952Z,27.30
2022-11-22T02:29:34.294Z,58.43
2022-11-22T02:33:36.419Z,21.80
2022-11-22T02:37:38.308Z,35.97
2022-11-22T02:41:40.699Z,42.77
2022-11-22T02:46:12.229Z,13.67
2022-11-22T02:51:17.186Z,33.03
2022-11-22T02:55:21.442Z,23.50
2022-11-22T02:59:36.043Z,22.80
2022-11-22T03:03:39.110Z,26.17
2022-11-22T03:07:41.253Z,35.57
2022-11-22T03:11:43.661Z,25.37
2022-11-22T03:15:48.078Z,24.10
2022-11-22T03:19:49.910Z,31.17
2022-11-22T03:23:51.988Z,25.43
2022-11-22T03:28:57.223Z,25.47
2022-11-22T03:33:28.269Z,11.87
2022-11-22T03:37:58.377Z,18.47
2022-11-22T03:42:02.576Z,14.50
2022-11-22T03:46:20.548Z,14.93
2022-11-22T03:50:23.744Z,12.00
2022-11-22T03:54:30.202Z,23.87
2022-11-22T03:58:32.453Z,10.87
2022-11-22T04:02:47.786Z,18.43
2022-11-22T04:06:50.254Z,32.77
2022-11-22T04:11:08.617Z,12.90
2022-11-22T04:15:10.839Z,19.17
2022-11-22T04:19:20.405Z,18.13
2022-11-22T04:23:28.135Z,29.47
2022-11-22T04:27:34.899Z,23.07
2022-11-22T04:31:57.613Z,23.03
2022-11-22T04:36:25.580Z,40.70
2022-11-22T04:40:27.518Z,32.90
2022-11-22T04:44:42.426Z,12.40
2022-11-22T04:48:44.337Z,25.27
2022-11-22T04:52:55.264Z,30.07
2022-11-22T04:56:57.333Z,24.00
2022-11-22T05:00:59.237Z,13.87
2022-11-22T05:05:01.146Z,26.73
2022-11-22T05:09:04.566Z,14.73
2022-11-22T05:13:06.413Z,9.53
2022-11-22T05:17:11.655Z,24.17
2022-11-22T05:21:15.166Z,22.50
2022-11-22T05:25:25.310Z,20.90
2022-11-22T05:29:44.049Z,12.73
2022-11-22T05:33:46.611Z,21.43
2022-11-22T05:38:23.193Z,16.07
2022-11-22T05:43:15.813Z,17.87
2022-11-22T05:47:23.380Z,43.47
2022-11-22T05:51:54.435Z,31.87
2022-11-22T05:56:23.941Z,13.67
2022-11-22T06:01:40.802Z,19.33
2022-11-22T06:06:09.405Z,30.83
2022-11-22T06:11:10.921Z,28.93
2022-11-22T06:15:17.398Z,26.50
2022-11-22T06:19:19.439Z,23.83
2022-11-22T06:23:23.403Z,16.33
2022-11-22T06:27:34.631Z,10.90
2022-11-22T06:31:37.220Z,22.70
2022-11-22T06:35:39.130Z,16.03
2022-11-22T06:40:38.101Z,20.07
2022-11-22T06:44:39.957Z,9.30
2022-11-22T06:48:52.470Z,7.90
2022-11-22T06:52:54.603Z,18.10
2022-11-22T06:56:57.661Z,22.53
2022-11-22T07:01:09.921Z,29.50
2022-11-22T07:05:27.831Z,20.53
2022-11-22T07:09:58.841Z,20.07
2022-11-22T07:14:07.605Z,8.53
2022-11-22T07:18:30.420Z,7.77
2022-11-22T07:22:32.477Z,12.70
2022-11-22T07:26:34.628Z,12.40
2022-11-22T07:30:39.869Z,29.57
2022-11-22T07:35:23.073Z,16.90
2022-11-22T07:39:30.619Z,17.73
2022-11-22T07:44:00.378Z,30.53
2022-11-22T07:48:02.756Z,18.33
2022-11-22T07:52:05.091Z,22.77
2022-11-22T07:56:23.537Z,11.53
2022-11-22T08:01:23.772Z,15.73
2022-11-22T08:05:28.087Z,20.03
2022-11-22T08:09:32.457Z,18.00
2022-11-22T08:13:35.099Z,20.80
2022-11-22T08:17:44.656Z,19.13
2022-11-22T08:21:51.569Z,14.03
2022-11-22T08:25:58.450Z,9.13
2022-11-22T08:30:06.971Z,9.17
2022-11-22T08:34:38.207Z,20.57
2022-11-22T08:38:41.990Z,9.40
2022-11-22T08:43:02.460Z,5.33
2022-11-22T08:47:04.570Z,6.30
2022-11-22T08:51:08.951Z,5.47
2022-11-22T08:55:10.994Z,7.37
2022-11-22T08:59:13.276Z,5.93
2022-11-22T09:03:15.277Z,5.67
2022-11-22T09:11:45.233Z,7.90
2022-11-22T09:15:51.581Z,5.77
2022-11-22T09:19:53.455Z,6.70
2022-11-22T09:24:11.871Z,10.50
2022-11-22T09:28:16.068Z,11.40
2022-11-22T09:32:18.148Z,10.10
2022-11-22T09:36:23.236Z,13.60
2022-11-22T09:40:26.161Z,13.33
2022-11-22T09:44:56.061Z,8.80
2022-11-22T09:49:19.052Z,7.20
2022-11-22T09:53:49.391Z,10.80
2022-11-22T09:58:30.734Z,11.20
2022-11-22T10:03:00.439Z,8.77
2022-11-22T10:07:08.683Z,9.93
2022-11-22T10:11:50.543Z,10.93
2022-11-22T10:16:24.738Z,9.47
2022-11-22T10:20:47.243Z,7.80
2022-11-22T10:24:50.466Z,8.40
2022-11-22T10:29:08.583Z,9.87
2022-11-22T10:33:18.216Z,9.70
2022-11-22T10:37:57.563Z,8.63
2022-11-22T10:43:03.348Z,7.97
2022-11-22T10:48:16.200Z,10.63
2022-11-22T10:59:15.038Z,10.47
2022-11-22T11:03:38.686Z,13.97
2022-11-22T11:07:56.756Z,13.07
2022-11-22T11:12:43.300Z,10.53
2022-11-22T11:16:46.256Z,10.93
2022-11-22T11:20:52.687Z,10.60
2022-11-22T11:25:30.389Z,12.57
2022-11-22T11:29:44.062Z,11.67
2022-11-22T11:34:16.776Z,11.20
2022-11-22T11:39:20.297Z,9.53
2022-11-22T11:43:24.773Z,11.00
2022-11-22T11:47:34.816Z,13.87
2022-11-22T11:51:53.337Z,12.93
2022-11-22T11:56:30.307Z,14.40
2022-11-22T12:00:39.365Z,14.37
2022-11-22T12:04:50.262Z,14.40
2022-11-22T12:09:31.131Z,10.40
2022-11-22T12:18:42.330Z,13.17
2022-11-22T12:23:23.073Z,10.93
2022-11-22T12:27:50.374Z,13.50
2022-11-22T12:32:14.639Z,11.80
2022-11-22T12:36:32.960Z,12.00
2022-11-22T12:40:58.536Z,11.37
2022-11-22T12:45:12.988Z,12.73
2022-11-22T12:49:28.345Z,13.60
2022-11-22T12:53:38.241Z,13.23
2022-11-22T12:57:51.499Z,13.97
2022-11-22T13:02:39.502Z,13.93
2022-11-22T13:06:51.107Z,12.57
2022-11-22T13:11:06.446Z,12.83
2022-11-22T13:15:14.082Z,13.23
2022-11-22T13:19:17.424Z,13.70
2022-11-22T13:23:56.810Z,12.50
2022-11-22T13:28:32.764Z,13.63
2022-11-22T13:33:00.986Z,12.73
2022-11-22T13:37:08.086Z,11.67
2022-11-22T13:41:30.195Z,10.73
2022-11-22T13:45:59.764Z,12.63
2022-11-22T13:50:01.702Z,15.50
2022-11-22T13:54:57.976Z,11.83
2022-11-22T13:59:19.930Z,13.83
2022-11-22T14:03:47.947Z,13.73
2022-11-22T14:08:01.161Z,14.63
2022-11-22T14:12:48.319Z,12.23
2022-11-22T14:17:42.160Z,10.73
2022-11-22T14:22:25.110Z,24.30
2022-11-22T14:32:24.030Z,10.97
2022-11-22T14:36:27.117Z,17.20
2022-11-22T14:41:06.699Z,17.67
2022-11-22T14:45:13.080Z,22.43
2022-11-22T14:49:53.446Z,18.30
2022-11-22T14:54:03.970Z,15.53
2022-11-22T14:58:08.694Z,14.77
2022-11-22T15:03:00.554Z,13.03
2022-11-22T15:09:12.139Z,11.87
2022-11-22T16:01:40.276Z,16.20
2022-11-22T16:06:07.070Z,10.37
2022-11-22T16:11:20.627Z,10.80
2022-11-22T16:16:04.070Z,9.57
2022-11-22T16:20:27.632Z,10.07
2022-11-22T16:24:33.655Z,10.47
2022-11-22T16:28:36.965Z,11.13
2022-11-22T16:32:39.074Z,9.83
2022-11-22T16:36:40.966Z,8.20
2022-11-22T16:46:42.174Z,11.17
2022-11-22T16:51:07.386Z,12.40
2022-11-22T16:55:20.003Z,12.27
2022-11-22T16:59:46.637Z,13.37
2022-11-22T17:04:41.258Z,21.10
2022-11-22T17:08:53.249Z,13.37
2022-11-22T17:12:55.282Z,12.37
2022-11-22T17:17:22.860Z,14.63
2022-11-22T17:21:37.043Z,11.27
2022-11-22T17:26:44.129Z,15.03
2022-11-22T17:36:44.922Z,11.27
2022-11-22T17:40:47.280Z,13.17
2022-11-22T17:45:14.771Z,15.97
2022-11-22T17:49:35.731Z,11.53
2022-11-22T17:53:41.065Z,12.20
2022-11-22T17:57:43.168Z,12.30
2022-11-22T18:01:45.105Z,10.70
2022-11-22T18:06:49.000Z,12.90
2022-11-22T18:11:59.036Z,14.90
2022-11-22T18:16:51.821Z,10.47
2022-11-22T18:22:01.833Z,12.30
2022-11-22T18:26:59.823Z,11.13
2022-11-22T18:31:01.832Z,10.53
2022-11-22T18:35:20.569Z,10.03
2022-11-22T18:39:38.280Z,10.03
2022-11-22T18:43:48.535Z,11.70
2022-11-22T18:47:50.405Z,11.23
2022-11-22T18:51:52.577Z,12.07
2022-11-22T18:57:02.114Z,13.13
2022-11-22T19:01:34.635Z,11.53
2022-11-22T19:05:39.542Z,12.07
2022-11-22T19:09:41.368Z,11.00
2022-11-22T19:13:44.396Z,13.03
2022-11-22T19:17:51.310Z,11.73
2022-11-22T19:21:53.156Z,10.70
2022-11-22T19:26:22.017Z,10.80
2022-11-22T19:30:27.221Z,12.80
2022-11-22T19:34:55.414Z,11.50
2022-11-22T19:40:05.683Z,11.17
2022-11-22T19:44:07.744Z,11.00
2022-11-22T19:49:05.827Z,10.03
2022-11-22T19:53:36.043Z,9.57
2022-11-22T19:57:37.875Z,8.80
2022-11-22T20:01:40.279Z,8.27
2022-11-22T20:05:42.412Z,9.70
2022-11-22T20:09:44.285Z,9.80
2022-11-22T20:13:50.395Z,9.77
2022-11-22T20:17:52.475Z,8.40
2022-11-22T20:21:59.607Z,9.70
2022-11-22T20:27:04.358Z,9.97
2022-11-22T20:31:07.713Z,9.30
2022-11-22T20:35:09.838Z,8.80
2022-11-22T20:39:23.964Z,9.60
2022-11-22T20:43:31.632Z,10.73
2022-11-22T20:47:56.732Z,11.13
2022-11-22T20:52:03.171Z,9.87
2022-11-22T20:56:12.121Z,9.47
2022-11-22T21:00:14.658Z,10.40
2022-11-22T21:04:19.325Z,9.83
2022-11-22T21:08:23.496Z,9.67
2022-11-22T21:12:25.451Z,10.27
2022-11-22T21:16:30.123Z,10.63
2022-11-22T21:20:32.842Z,11.97
2022-11-22T21:25:13.375Z,10.50
2022-11-22T21:34:52.183Z,9.27
2022-11-22T21:38:54.198Z,8.77
2022-11-22T21:42:56.076Z,10.03
2022-11-22T21:47:04.222Z,9.73
2022-11-22T21:51:06.272Z,9.50
2022-11-22T21:55:09.766Z,8.17
2022-11-22T21:59:12.048Z,9.20
2022-11-22T22:04:04.772Z,11.07
2022-11-22T22:08:07.431Z,12.87
2022-11-22T22:12:16.526Z,43.03
2022-11-22T22:16:48.070Z,15.07
2022-11-22T22:21:30.883Z,18.83
2022-11-22T22:25:40.850Z,14.40
2022-11-22T22:29:42.770Z,13.70
2022-11-22T22:34:48.878Z,21.73
2022-11-22T22:39:58.916Z,18.17
2022-11-22T22:44:01.024Z,10.43
2022-11-22T22:48:20.445Z,9.97
2022-11-22T22:52:23.554Z,21.93
2022-11-22T22:56:51.485Z,18.93
2022-11-22T23:00:53.464Z,16.30
2022-11-22T23:04:55.321Z,22.20
2022-11-22T23:08:58.228Z,12.73
2022-11-22T23:13:00.050Z,9.53
2022-11-22T23:17:02.419Z,16.20
2022-11-22T23:21:19.666Z,11.40
2022-11-22T23:26:29.930Z,8.77
2022-11-22T23:31:03.506Z,20.30
2022-11-22T23:35:07.067Z,16.07
2022-11-22T23:40:21.491Z,10.07
2022-11-22T23:44:24.745Z,8.10
2022-11-22T23:48:27.792Z,8.17
2022-11-22T23:52:30.097Z,7.37
2022-11-22T23:56:34.522Z,7.23
